CYTOKINETICS INC

Pages

CYTOKINETICS INC

$CYTK

Search Table
Pages

Trade Date Insider Insider Title Security Type Execution Date Exercise Date Expiration Date Share Price Quantity Shares Owned Shares Code Transaction Code Swap Under SEC Title Under Sec Shares Nature of Ownership SEC Link
2020-07-06Robert I BlumNon-Qualified Stock Option (right to buy)-2013-04-052023-03-05$0.005,000104,434DM0Common Stock5,000DForm 4
2020-07-07Sandford D SmithNon-Qualified Stock Option (right to buy)-2015-06-202025-05-20$0.005,23214,768DM0Common Stock5,232DForm 4
2020-07-08Sandford D SmithNon-Qualified Stock Option (right to buy)-2015-06-202025-05-20$0.001,43413,334DM0Common Stock1,434DForm 4
2020-07-07Sandford D SmithNon-Qualified Stock Option (right to buy)-2014-02-022024-01-02$0.006,5100DM0Common Stock6,510DForm 4
2020-04-28Wendall WierengaNon-Qualified Stock Option (right to buy)-2011-06-182021-05-18$16.003,3330DM0Common Stock3,333DForm 4
2020-04-28Wendall WierengaNon-Qualified Stock Option (right to buy)-2011-03-092021-02-09$16.006,6660DM0Common Stock6,666DForm 4
2020-05-05Santo J CostaNon-Qualified Stock Option (right to buy)-2012-06-222022-05-22$17.004,1660DM0Common Stock4,166DForm 4
2020-05-05Santo J CostaNon-Qualified Stock Option (right to buy)-2013-06-222023-05-22$17.004,1660DM0Common Stock4,166DForm 4
2020-05-18Robert I BlumIncentive Stock Option (right to buy)-2012-04-052022-03-05$22.164,18911,179DM0Common Stock4,189DForm 4
2020-05-19John T HendersonNon-Qualified Stock Option (right to buy)-2010-06-202020-05-20$20.933,3330DM0Common Stock3,333DForm 4
2020-05-18L Patrick GageNon-Qualified Stock Option (right to buy)-2010-06-202020-05-20$22.223,3330DM0Common Stock3,333DForm 4
2020-07-10Sandford D SmithNon-Qualified Stock Option (right to buy)-2015-06-202025-05-20$0.006,6676,667DM0Common Stock6,667DForm 4
2020-05-11Santo J CostaNon-Qualified Stock Option (right to buy)-2015-06-202025-05-20$20.0020,0000DM0Common Stock20,000DForm 4
2020-05-11Santo J CostaNon-Qualified Stock Option (right to buy)-2011-06-182021-05-18$19.473,3330DM0Common Stock3,333DForm 4
2020-05-11Santo J CostaNon-Qualified Stock Option (right to buy)-2010-12-012020-11-01$19.476,6660DM0Common Stock6,666DForm 4
2020-05-13Santo J CostaNon-Qualified Stock Option (right to buy)-2030-05-13$21.6120,00020,000AA0Common Stock20,000DForm 4
2020-05-13Robert CaliffNon-Qualified Stock Option (right to buy)-2030-05-13$21.6120,00020,000AA0Common Stock20,000DForm 4
2020-05-13L Patrick GageNon-Qualified Stock Option (right to buy)-2030-05-13$21.6120,00020,000AA0Common Stock20,000DForm 4
2020-05-13John T HendersonNon-Qualified Stock Option (right to buy)-2030-05-13$21.6120,00020,000AA0Common Stock20,000DForm 4
2020-05-13Kaye Edward M. MdNon-Qualified Stock Option (right to buy)-2030-05-13$21.6120,00020,000AA0Common Stock20,000DForm 4
2020-05-13B Lynne ParshallNon-Qualified Stock Option (right to buy)-2030-05-13$21.6120,00020,000AA0Common Stock20,000DForm 4
2020-05-13Sandford D SmithNon-Qualified Stock Option (right to buy)-2030-05-13$21.6120,00020,000AA0Common Stock20,000DForm 4
2020-05-13Wendall WierengaNon-Qualified Stock Option (right to buy)-2030-05-13$21.6120,00020,000AA0Common Stock20,000DForm 4
2020-06-12Sandford D SmithNon-Qualified Stock Option (right to buy)-2013-02-022023-01-02$0.0010,8790DM0Common Stock10,879DForm 4
2020-06-12Sandford D SmithNon-Qualified Stock Option (right to buy)-2012-06-222022-05-22$0.004,1660DM0Common Stock4,166DForm 4
2020-06-11Robert I BlumIncentive Stock Option (right to buy)-2012-04-052022-03-05$0.005,0001,179DM0Common Stock5,000DForm 4
2020-06-15Sandford D SmithNon-Qualified Stock Option (right to buy)-2012-04-052022-03-05$0.006,6660DM0Common Stock6,666DForm 4
2020-06-17Sandford D SmithNon-Qualified Stock Option (right to buy)-2013-06-222023-05-22$0.004,1660DM0Common Stock4,166DForm 4
2020-06-17Sandford D SmithNon-Qualified Stock Option (right to buy)-2012-05-022022-04-02$0.002,7410DM0Common Stock2,741DForm 4
2020-06-22Sandford D SmithNon-Qualified Stock Option (right to buy)-2014-06-212024-05-21$0.005,0000DM0Common Stock5,000DForm 4
2020-06-22Sandford D SmithNon-Qualified Stock Option (right to buy)-2014-06-212024-05-21$0.005,0005,000DM0Common Stock5,000DForm 4
2020-06-22B Lynne ParshallNon-Qualified Stock Option (right to buy)-2014-06-212024-05-21$0.0010,0000DM0Common Stock10,000DForm 4
2020-06-22B Lynne ParshallNon-Qualified Stock Option (right to buy)-2014-02-022024-01-02$0.006,5100DM0Common Stock6,510DForm 4
2020-06-22Santo J CostaNon-Qualified Stock Option (right to buy)-2016-06-182026-05-18$0.0020,0000DM0Common Stock20,000DForm 4
2020-06-24Robert I BlumIncentive Stock Option (right to buy)-2012-04-052022-03-05$0.001,1790DM0Common Stock1,179DForm 4
2020-06-24Robert I BlumNon-Qualified Stock Option (right to buy)-2013-04-052023-03-05$0.003,821109,434DM0Common Stock3,821DForm 4
2020-07-15Sandford D SmithNon-Qualified Stock Option (right to buy)-2015-06-202025-05-20$0.006,6670DM0Common Stock6,667DForm 4
2020-07-16Robert I BlumNon-Qualified Stock Option (right to buy)-2013-04-052023-03-05$0.005,00099,434DM0Common Stock5,000DForm 4
2020-07-28Robert I BlumNon-Qualified Stock Option (right to buy)-2013-04-052023-03-05$0.005,00094,434DM0Common Stock5,000DForm 4
2020-07-29Mark A SchlossbergNon-Qualified Stock Option (right to buy)-2020-01-312029-01-31$0.0010,00045,244DM0Common Stock10,000DForm 4
2020-08-05Robert I BlumNon-Qualified Stock Option (right to buy)-2013-04-052023-03-05$0.005,00089,434DM0Common Stock5,000DForm 4
2020-08-18Robert I BlumNon-Qualified Stock Option (right to buy)-2013-04-052023-03-05$0.005,00084,434DM0Common Stock5,000DForm 4
2020-08-21Mark A SchlossbergNon-Qualified Stock Option (right to buy)-2020-01-312029-01-31$0.0010,00035,244DM0Common Stock10,000DForm 4
2020-08-21Ching JawNon-Qualified Stock Option (right to buy)-2019-03-262029-02-26$0.0010,00025,732DM0Common Stock10,000DForm 4
2020-08-21Ching JawNon-Qualified Stock Option (right to buy)-2018-03-272028-02-27$0.0015,00023,333DM0Common Stock15,000DForm 4
2020-09-04Robert I BlumNon-Qualified Stock Option (right to buy)-2013-04-052023-03-05$0.005,00079,434DM0Common Stock5,000DForm 4
2020-09-11Robert I BlumNon-Qualified Stock Option (right to buy)-2013-04-052023-03-05$0.005,00074,434DM0Common Stock5,000DForm 4
2020-09-21Robert I BlumNon-Qualified Stock Option (right to buy)-2013-04-052023-03-05$0.005,00069,434DM0Common Stock5,000DForm 4
2020-10-02Robert I BlumNon-Qualified Stock Option (right to buy)-2013-04-052023-03-05$0.005,00064,434DM0Common Stock5,000DForm 4
2020-10-05Santo J CostaNon-Qualified Stock Option (right to buy)-2019-05-162028-05-16$0.0015,0005,000DM0Common Stock15,000DForm 4
2020-10-05Ching JawIncentive Stock Option (right to buy)-2018-06-302027-06-30$0.0015,00018,056DM0Common Stock15,000DForm 4
2020-10-05Ching JawNon-Qualified Stock Option (right to buy)-2019-03-262029-02-26$0.005,00020,732DM0Common Stock5,000DForm 4
2020-10-05Ching JawNon-Qualified Stock Option (right to buy)-2018-03-272028-02-27$0.007,50015,833DM0Common Stock7,500DForm 4
2020-10-05Kaye Edward M. MdNon-Qualified Stock Option (right to buy)-2016-06-182026-05-18$0.0020,00015,000DM0Common Stock20,000DForm 4
2020-10-05John T HendersonNon-Qualified Stock Option (right to buy)-2011-02-032021-01-03$0.001,5002,358DM0Common Stock1,500DForm 4
2020-10-05John T HendersonNon-Qualified Stock Option (right to buy)-2011-02-032021-01-03$0.001,500858DM0Common Stock1,500DForm 4
2020-10-05Sandford D SmithNon-Qualified Stock Option (right to buy)-2015-02-022025-01-02$2.955,9360DM0Common Stock5,936DForm 4
2020-10-05B Lynne ParshallNon-Qualified Stock Option (right to buy)-2015-06-202025-05-20$0.0020,0000DM0Common Stock20,000DForm 4
2020-10-05B Lynne ParshallNon-Qualified Stock Option (right to buy)-2015-02-022025-01-02$0.005,9360DM0Common Stock5,936DForm 4
2020-10-05B Lynne ParshallNon-Qualified Stock Option (right to buy)-2016-06-182026-05-18$0.0020,0000DM0Common Stock20,000DForm 4
2020-10-05B Lynne ParshallNon-Qualified Stock Option (right to buy)-2016-02-042026-01-04$4.004,3750DM0Common Stock4,375DForm 4
2020-10-13Robert I BlumNon-Qualified Stock Option (right to buy)-2013-04-052023-03-05$0.005,00059,434DM0Common Stock5,000DForm 4
2020-10-29Robert I BlumNon-Qualified Stock Option (right to buy)-2013-04-052023-03-05$0.005,00054,434DM0Common Stock5,000DForm 4
2020-11-10Robert I BlumNon-Qualified Stock Option (right to buy)-2013-04-052023-03-05$0.005,00049,434DM0Common Stock5,000DForm 4
2020-11-20Bvf Partners L P/ilCall Option2020-11-20$0.007400DJ0Common Stock, $0.001 par value74,000DForm 4
2020-11-20Bvf Partners L P/ilCall Option2020-11-20$0.005510DJ0Common Stock, $0.001 par value55,100DForm 4
2020-11-20Bvf Partners L P/ilCall Option2020-11-20$0.00930DJ0Common Stock, $0.001 par value9,300DForm 4
2020-11-20Nancy WysenskiNon-Qualified Stock Option (right to buy)-2020-12-202030-11-20$15.9935,00035,000AA0Common Stock35,000DForm 4
2020-11-23Robert I BlumNon-Qualified Stock Option (right to buy)-2013-04-052023-03-05$0.005,00044,434DM0Common Stock5,000DForm 4
2020-12-15L Patrick GageNon-Qualified Stock Option (right to buy)-2011-02-032021-01-03$0.007,7160DM0Common Stock7,716DForm 4
2020-12-15David CraggIncentive Stock Option (right to buy)-2011-03-312021-02-28$0.007,4231DC0Common Stock7,423DForm 4
2020-12-15David CraggNon-Qualified Stock Option (right to buy)-2011-03-312021-02-28$0.007,42316,666AC0Common Stock7,423DForm 4
2020-12-15David CraggNon-Qualified Stock Option (right to buy)-2011-03-312021-02-28$0.007,4239,243DM0Common Stock7,423DForm 4
2020-12-15David CraggNon-Qualified Stock Option (right to buy)-2011-03-312021-02-28$0.009,2430DM0Common Stock9,243DForm 4
2020-12-16Robert I BlumNon-Qualified Stock Option (right to buy)-2013-04-052023-03-05$0.005,00034,434DM0Common Stock5,000DForm 4
2020-12-31John T HendersonNon-Qualified Stock Option (right to buy)-2011-02-032021-01-03$0.008580DM0Common Stock858DForm 4
2021-01-04Robert I BlumNon-Qualified Stock Option (right to buy)-2013-04-052023-03-05$0.005,00029,434DM0Common Stock5,000DForm 4
2021-01-14Fady Ibraham MalikIncentive Stock Option (right to buy)-2011-03-312021-02-28$0.0011,8830DM0Common Stock11,883DForm 4
2021-01-14Fady Ibraham MalikNon-Qualified Stock Option (right to buy)-2011-03-312021-02-28$0.006170DM0Common Stock617DForm 4
2021-01-20Robert I BlumNon-Qualified Stock Option (right to buy)-2013-04-052023-03-05$0.005,00024,434DM0Common Stock5,000DForm 4
2021-01-29Robert I BlumNon-Qualified Stock Option (right to buy)-2013-04-052023-03-05$0.005,00019,434DM0Common Stock5,000DForm 4
2021-02-10Robert I BlumNon-Qualified Stock Option (right to buy)-2013-04-052023-03-05$0.005,00014,434DM0Common Stock5,000DForm 4
2021-02-17Muna BhanjiNon-Qualified Stock Option (right to buy)-2021-03-172031-02-17$21.8635,00035,000AA0Common Stock35,000DForm 4
2021-02-18Robert I BlumIncentive Stock Option (right to buy)-2011-03-312021-02-28$0.0010,4090DC0Common Stock10,409DForm 4
2021-02-18Robert I BlumNon-Qualified Stock Option (right to buy)-2011-03-312021-02-28$0.0010,40983,332AC0Common Stock10,409DForm 4
2021-02-18Robert I BlumNon-Qualified Stock Option (right to buy)-2011-03-312021-02-28$0.0010,40972,923DM0Common Stock10,409DForm 4
2021-02-18Robert I BlumNon-Qualified Stock Option (right to buy)-2011-03-312021-02-28$0.0072,9230DM0Common Stock72,923DForm 4
2021-02-26Robert I BlumNon-Qualified Stock Option (right to buy)-2013-04-052023-03-05$0.005,0009,434DM0Common Stock5,000DForm 4